Time;durP1;ratioP1;P1;durP2;ratioP2;P2;SDS_P1;SDS_P2;PMS_P1;PMS_P2;Temp;Humidity;BMP_temperature;BMP_pressure;BME280_temperature;BME280_humidity;BME280_pressure;Samples;Min_cycle;Max_cycle;Signal;HPM_P1;HPM_P2
2022/09/11 00:00:00;;;;;;;0.80;0.70;;;21.80;61.20;;;;;;6214439;28;20033;-71
2022/09/11 00:03:01;;;;;;;1.15;0.70;;;21.80;61.20;;;;;;6213999;28;20071;-71
2022/09/11 00:06:03;;;;;;;0.90;0.70;;;21.80;61.20;;;;;;6213993;28;20105;-71
2022/09/11 00:09:06;;;;;;;1.08;0.85;;;21.80;61.20;;;;;;6214482;28;20026;-72
2022/09/11 00:12:06;;;;;;;0.95;0.60;;;21.80;61.20;;;;;;6215928;28;20036;-72
2022/09/11 00:15:07;;;;;;;0.80;0.70;;;21.80;61.20;;;;;;6215469;28;20060;-71
2022/09/11 00:18:11;;;;;;;0.98;0.80;;;21.80;61.20;;;;;;6214097;28;20100;-72
2022/09/11 00:21:12;;;;;;;1.05;0.80;;;21.80;61.30;;;;;;6214113;28;20026;-72
2022/09/11 00:24:13;;;;;;;1.05;0.70;;;21.80;61.30;;;;;;6213629;28;20033;-71
2022/09/11 00:27:13;;;;;;;1.15;0.88;;;21.80;61.30;;;;;;6213980;28;20022;-71
2022/09/11 00:30:14;;;;;;;0.88;0.60;;;21.80;61.30;;;;;;6213443;28;20499;-72
2022/09/11 00:33:15;;;;;;;1.10;0.70;;;21.80;61.30;;;;;;6213836;28;20024;-72
2022/09/11 00:36:18;;;;;;;0.70;0.70;;;21.80;61.30;;;;;;6213600;28;20041;-72
2022/09/11 00:39:20;;;;;;;0.70;0.60;;;21.80;61.20;;;;;;6214504;28;20041;-71
2022/09/11 00:42:20;;;;;;;0.70;0.70;;;21.80;61.30;;;;;;6213746;28;20053;-71
2022/09/11 00:45:25;;;;;;;0.70;0.60;;;21.80;61.30;;;;;;6213708;28;20030;-72
2022/09/11 00:48:32;;;;;;;0.60;0.50;;;21.80;61.30;;;;;;6217489;28;20083;-71
2022/09/11 00:51:35;;;;;;;0.57;0.52;;;21.80;62.10;;;;;;6217428;28;20154;-71
2022/09/11 00:54:43;;;;;;;0.85;0.65;;;21.80;61.30;;;;;;6217347;28;20328;-72
2022/09/11 00:57:49;;;;;;;0.80;0.60;;;21.80;61.30;;;;;;6217217;28;20396;-72
2022/09/11 01:00:52;;;;;;;0.80;0.70;;;21.80;61.30;;;;;;6217142;28;20029;-72
2022/09/11 01:03:54;;;;;;;0.98;0.68;;;21.80;61.30;;;;;;6217112;28;20026;-71
2022/09/11 01:06:57;;;;;;;0.80;0.68;;;21.80;61.30;;;;;;6217194;28;20026;-72
2022/09/11 01:09:58;;;;;;;0.68;0.60;;;21.80;61.30;;;;;;6217479;28;20046;-72
2022/09/11 01:13:08;;;;;;;0.50;0.50;;;21.80;61.30;;;;;;6217672;28;20044;-72
2022/09/11 01:16:39;;;;;;;0.77;0.68;;;21.80;61.30;;;;;;6216883;28;20037;-72
2022/09/11 01:19:49;;;;;;;0.90;0.70;;;21.80;61.30;;;;;;6193202;28;20033;-72
2022/09/11 01:22:55;;;;;;;0.73;0.50;;;21.80;61.30;;;;;;6205323;28;20117;-72
2022/09/11 01:26:14;;;;;;;0.88;0.65;;;21.80;61.30;;;;;;6216478;28;20037;-72
2022/09/11 01:29:33;;;;;;;1.13;0.82;;;21.80;61.20;;;;;;6216788;28;20030;-72
2022/09/11 01:32:53;;;;;;;0.80;0.50;;;21.80;61.30;;;;;;6216576;28;20109;-72
2022/09/11 01:36:08;;;;;;;0.70;0.70;;;21.80;61.30;;;;;;6216593;28;20491;-72
2022/09/11 01:39:09;;;;;;;;;;;21.80;61.30;;;;;;6217266;28;20030;-72
2022/09/11 01:42:15;;;;;;;0.93;0.57;;;21.80;61.30;;;;;;6216720;28;19925;-71
2022/09/11 01:45:16;;;;;;;0.55;0.50;;;21.80;61.30;;;;;;6216148;28;20034;-72
2022/09/11 01:48:23;;;;;;;0.90;0.65;;;21.80;61.30;;;;;;6216566;28;20361;-72
2022/09/11 01:51:28;;;;;;;0.88;0.73;;;21.80;61.30;;;;;;6216622;28;20488;-72
2022/09/11 01:54:34;;;;;;;1.05;0.77;;;21.80;61.30;;;;;;6216162;28;20029;-72
2022/09/11 01:57:41;;;;;;;0.60;0.50;;;21.80;61.30;;;;;;6214870;28;20075;-72
2022/09/11 02:00:44;;;;;;;0.60;0.55;;;21.80;61.30;;;;;;6216651;28;20025;-72
2022/09/11 02:03:58;;;;;;;0.80;0.60;;;21.80;61.30;;;;;;6219617;28;20018;-72
2022/09/11 02:07:15;;;;;;;0.60;0.52;;;21.80;61.30;;;;;;6217955;28;20030;-72
2022/09/11 02:10:23;;;;;;;0.75;0.63;;;21.80;61.30;;;;;;6191966;28;20022;-72
2022/09/11 02:13:34;;;;;;;0.75;0.57;;;21.80;61.30;;;;;;6200947;28;20030;-72
2022/09/11 02:16:50;;;;;;;0.57;0.52;;;21.80;61.30;;;;;;6216662;28;20045;-72
2022/09/11 02:19:58;;;;;;;0.60;0.60;;;21.80;61.30;;;;;;6216241;28;20026;-72
2022/09/11 02:23:00;;;;;;;2.92;0.90;;;21.80;61.30;;;;;;6216018;28;20022;-72
2022/09/11 02:26:02;;;;;;;0.63;0.60;;;21.80;61.30;;;;;;6216327;28;20163;-72
2022/09/11 02:29:04;;;;;;;0.80;0.70;;;21.80;61.30;;;;;;6289465;28;20039;-71
2022/09/11 02:32:05;;;;;;;0.80;0.70;;;21.80;61.30;;;;;;6289981;28;20032;-72
2022/09/11 02:35:06;;;;;;;0.60;0.60;;;21.80;61.30;;;;;;6289621;28;20033;-72
2022/09/11 02:38:31;;;;;;;0.80;0.60;;;21.80;61.30;;;;;;6289352;28;20214;-72
2022/09/11 02:41:54;;;;;;;0.82;0.73;;;21.80;61.70;;;;;;6287880;28;20017;-72
2022/09/11 02:45:19;;;;;;;0.52;0.52;;;21.80;61.30;;;;;;6272152;28;20118;-72
2022/09/11 02:48:31;;;;;;;0.50;0.50;;;21.80;61.30;;;;;;6289206;28;20037;-72
2022/09/11 02:52:08;;;;;;;0.75;0.60;;;21.80;61.30;;;;;;6290781;28;20036;-72
2022/09/11 02:55:22;;;;;;;0.57;0.52;;;21.80;61.30;;;;;;6289400;28;20119;-71
2022/09/11 02:58:42;;;;;;;0.60;0.60;;;21.80;61.30;;;;;;6286525;28;20402;-71
2022/09/11 03:01:54;;;;;;;0.63;0.50;;;21.80;61.30;;;;;;6215194;28;20037;-71
2022/09/11 03:04:55;;;;;;;0.85;0.65;;;21.80;61.30;;;;;;6215123;28;20018;-72
2022/09/11 03:07:56;;;;;;;0.60;0.60;;;21.80;61.30;;;;;;6215030;28;20487;-72
2022/09/11 03:10:57;;;;;;;0.70;0.50;;;21.80;61.30;;;;;;6215096;28;20034;-71
2022/09/11 03:13:57;;;;;;;1.20;0.60;;;21.80;61.30;;;;;;6216280;28;20098;-71
2022/09/11 03:16:58;;;;;;;0.80;0.70;;;21.80;61.30;;;;;;6215419;28;20030;-72
2022/09/11 03:19:59;;;;;;;0.70;0.68;;;21.80;61.30;;;;;;6214743;28;20018;-72
2022/09/11 03:22:59;;;;;;;0.52;0.52;;;21.80;61.30;;;;;;6214585;28;20018;-72
2022/09/11 03:26:00;;;;;;;0.50;0.50;;;21.80;61.30;;;;;;6214427;28;20014;-71
2022/09/11 03:29:01;;;;;;;1.52;0.70;;;21.80;61.30;;;;;;6214569;28;20092;-71
2022/09/11 03:32:02;;;;;;;0.90;0.60;;;21.80;61.30;;;;;;6214411;28;20030;-71
2022/09/11 03:35:03;;;;;;;0.82;0.60;;;21.80;61.30;;;;;;6214956;28;20086;-72
2022/09/11 03:38:03;;;;;;;0.60;0.60;;;21.80;61.30;;;;;;6215369;28;20045;-72
2022/09/11 03:41:04;;;;;;;0.55;0.55;;;21.80;61.30;;;;;;6215605;28;20037;-72
2022/09/11 03:44:05;;;;;;;0.80;0.50;;;21.80;61.30;;;;;;6213887;28;20046;-72
2022/09/11 03:47:06;;;;;;;0.55;0.50;;;21.80;61.80;;;;;;6215044;28;20178;-72
2022/09/11 03:50:08;;;;;;;0.70;0.60;;;21.80;61.30;;;;;;6214072;28;20026;-71
2022/09/11 03:53:09;;;;;;;0.50;0.50;;;21.80;61.30;;;;;;6214243;28;20476;-71
2022/09/11 03:56:11;;;;;;;0.47;0.47;;;21.80;61.30;;;;;;6213263;28;20395;-72
2022/09/11 03:59:12;;;;;;;0.95;0.63;;;21.80;61.30;;;;;;6213954;28;20041;-72
2022/09/11 04:02:12;;;;;;;0.90;0.70;;;21.80;61.30;;;;;;6214048;28;20026;-72
2022/09/11 04:05:13;;;;;;;0.50;0.47;;;21.80;61.30;;;;;;6214320;28;20430;-72
2022/09/11 04:08:13;;;;;;;0.63;0.63;;;21.80;61.30;;;;;;6214282;28;20053;-72
2022/09/11 04:11:15;;;;;;;1.27;0.60;;;21.80;61.30;;;;;;6213268;28;20411;-72
2022/09/11 04:14:16;;;;;;;0.70;0.60;;;21.80;61.30;;;;;;6214136;28;20030;-72
2022/09/11 04:17:16;;;;;;;0.70;0.70;;;21.80;61.30;;;;;;6214671;28;20262;-71
2022/09/11 04:20:17;;;;;;;0.90;0.60;;;21.80;61.30;;;;;;6215364;28;20638;-73
2022/09/11 04:23:18;;;;;;;1.25;0.70;;;21.80;61.30;;;;;;6219608;28;20030;-72
2022/09/11 04:26:20;;;;;;;1.30;0.60;;;21.80;61.30;;;;;;6220110;28;20505;-72
2022/09/11 04:29:21;;;;;;;0.63;0.60;;;21.80;61.30;;;;;;6217724;28;20029;-72
2022/09/11 04:32:21;;;;;;;0.60;0.60;;;21.80;61.30;;;;;;6217429;28;20030;-72
2022/09/11 04:35:22;;;;;;;0.73;0.70;;;21.80;61.30;;;;;;6219585;28;20033;-71
2022/09/11 04:38:23;;;;;;;0.85;0.70;;;21.80;61.30;;;;;;6219460;28;20109;-72
2022/09/11 04:41:25;;;;;;;0.65;0.60;;;21.80;61.30;;;;;;6219104;28;20028;-72
2022/09/11 04:44:26;;;;;;;0.80;0.70;;;21.80;61.30;;;;;;6219026;28;20500;-72
2022/09/11 04:47:27;;;;;;;0.63;0.63;;;21.80;61.30;;;;;;6218413;28;20117;-71
2022/09/11 04:50:29;;;;;;;0.93;0.70;;;21.80;61.30;;;;;;6217856;28;20075;-72
2022/09/11 04:53:33;;;;;;;0.70;0.70;;;21.80;61.30;;;;;;6217190;28;20018;-71
2022/09/11 04:56:38;;;;;;;0.75;0.68;;;21.80;61.20;;;;;;6217531;28;20450;-72
2022/09/11 05:03:36;;;;;;;0.50;0.50;;;21.80;61.30;;;;;;6194176;28;20047;-73
2022/09/11 05:06:36;;;;;;;0.80;0.70;;;21.80;61.30;;;;;;6206004;28;20388;-71
2022/09/11 05:09:37;;;;;;;0.73;0.70;;;21.80;61.30;;;;;;6217386;28;20036;-71
2022/09/11 05:12:38;;;;;;;0.55;0.50;;;21.80;61.30;;;;;;6217135;28;20022;-71
2022/09/11 05:15:38;;;;;;;0.43;0.43;;;21.80;61.30;;;;;;6223419;28;20587;-72
2022/09/11 05:18:41;;;;;;;1.00;0.68;;;21.80;61.20;;;;;;6217163;28;20026;-72
2022/09/11 05:21:41;;;;;;;0.70;0.70;;;21.80;61.30;;;;;;6217073;28;20038;-72
2022/09/11 05:24:42;;;;;;;0.85;0.60;;;21.80;61.30;;;;;;6216856;28;20033;-72
2022/09/11 05:27:42;;;;;;;0.70;0.70;;;21.80;61.30;;;;;;6217308;28;20061;-72
2022/09/11 05:30:43;;;;;;;0.82;0.70;;;21.80;61.20;;;;;;6215701;28;20207;-72
2022/09/11 05:33:45;;;;;;;0.70;0.70;;;21.80;61.20;;;;;;6216378;28;20036;-72
2022/09/11 05:36:45;;;;;;;0.80;0.77;;;21.80;61.20;;;;;;6216170;28;20030;-72
2022/09/11 05:39:46;;;;;;;0.70;0.60;;;21.80;61.20;;;;;;6216975;28;20502;-72
2022/09/11 05:42:47;;;;;;;0.82;0.70;;;21.80;61.20;;;;;;6214977;28;20534;-72
2022/09/11 05:45:55;;;;;;;0.70;0.70;;;21.80;61.20;;;;;;6216364;28;20028;-72
2022/09/11 05:48:57;;;;;;;0.98;0.75;;;21.80;61.20;;;;;;6192207;28;20525;-72
2022/09/11 05:51:58;;;;;;;0.65;0.63;;;21.80;61.20;;;;;;6200478;28;20025;-72
2022/09/11 05:54:59;;;;;;;0.70;0.70;;;21.80;61.20;;;;;;6216650;28;20022;-71
2022/09/11 05:58:00;;;;;;;1.67;1.08;;;21.80;61.20;;;;;;6216431;28;20375;-71
2022/09/11 06:01:12;;;;;;;0.70;0.70;;;21.80;61.30;;;;;;6216937;28;20018;-72
2022/09/11 06:04:13;;;;;;;1.00;0.88;;;21.80;61.20;;;;;;6192115;28;20477;-72
2022/09/11 06:07:13;;;;;;;0.90;0.77;;;21.80;61.20;;;;;;6200097;28;20034;-71
2022/09/11 06:10:14;;;;;;;0.80;0.70;;;21.80;61.20;;;;;;6215097;28;20026;-71
2022/09/11 06:13:18;;;;;;;1.38;0.70;;;21.80;61.20;;;;;;6215837;28;20380;-71
2022/09/11 06:16:20;;;;;;;1.05;0.95;;;21.80;61.20;;;;;;6214566;28;20022;-71
2022/09/11 06:19:20;;;;;;;0.80;0.70;;;21.80;61.20;;;;;;6215881;28;20395;-72
2022/09/11 06:22:22;;;;;;;0.75;0.73;;;21.80;61.20;;;;;;6221977;28;20026;-71
2022/09/11 06:25:22;;;;;;;0.65;0.55;;;21.80;61.20;;;;;;6214229;28;20026;-72
2022/09/11 06:28:23;;;;;;;1.10;0.90;;;21.80;61.20;;;;;;6215752;28;20490;-72
2022/09/11 06:31:25;;;;;;;0.77;0.77;;;21.80;61.20;;;;;;6215905;28;20390;-72
2022/09/11 06:34:26;;;;;;;1.08;0.90;;;21.70;61.10;;;;;;6215046;28;20040;-72
2022/09/11 06:37:27;;;;;;;1.00;0.80;;;21.80;61.20;;;;;;6215644;28;20037;-71
2022/09/11 06:40:27;;;;;;;1.00;0.80;;;21.80;61.20;;;;;;6215826;28;20288;-72
2022/09/11 06:43:29;;;;;;;0.73;0.70;;;21.80;61.20;;;;;;6214189;28;20416;-72
2022/09/11 06:46:30;;;;;;;0.90;0.70;;;21.80;62.00;;;;;;6215485;28;20018;-71
2022/09/11 06:49:31;;;;;;;0.85;0.85;;;21.80;61.20;;;;;;6215685;28;20453;-72
2022/09/11 06:52:34;;;;;;;0.95;0.75;;;21.80;61.20;;;;;;6215879;28;20123;-72
2022/09/11 06:55:35;;;;;;;1.25;0.82;;;21.80;61.20;;;;;;6214732;28;20029;-72
2022/09/11 06:58:35;;;;;;;0.82;0.70;;;21.80;61.20;;;;;;6215224;28;20400;-72
2022/09/11 07:01:38;;;;;;;1.05;0.90;;;21.80;61.20;;;;;;6215138;28;20030;-72
2022/09/11 07:04:38;;;;;;;0.77;0.77;;;21.80;61.20;;;;;;6214611;28;20395;-72
2022/09/11 07:07:40;;;;;;;0.95;0.85;;;21.80;61.20;;;;;;6215343;28;20022;-72
2022/09/11 07:10:40;;;;;;;1.02;0.80;;;21.80;61.20;;;;;;6214861;28;20029;-72
2022/09/11 07:13:41;;;;;;;1.00;0.85;;;21.80;61.20;;;;;;6214629;28;20022;-72
2022/09/11 07:16:41;;;;;;;1.00;0.82;;;21.80;61.20;;;;;;6214484;28;20516;-73
2022/09/11 07:19:42;;;;;;;1.10;1.00;;;21.80;61.20;;;;;;6214716;28;20112;-72
2022/09/11 07:22:44;;;;;;;1.23;1.00;;;21.80;61.20;;;;;;6214945;28;20063;-72
2022/09/11 07:25:45;;;;;;;0.90;0.80;;;21.80;61.20;;;;;;6213865;28;20128;-72
2022/09/11 07:28:49;;;;;;;1.00;0.80;;;21.80;61.20;;;;;;6214666;28;20025;-71
2022/09/11 07:31:49;;;;;;;1.52;1.08;;;21.80;61.20;;;;;;6214562;28;20052;-72
2022/09/11 07:34:50;;;;;;;1.00;0.90;;;21.80;61.20;;;;;;6214249;28;20022;-72
2022/09/11 07:37:51;;;;;;;0.90;0.75;;;21.80;61.20;;;;;;6214295;28;20034;-72
2022/09/11 07:40:55;;;;;;;0.98;0.88;;;21.80;61.20;;;;;;6215133;28;20448;-71
2022/09/11 07:44:02;;;;;;;1.10;1.00;;;21.80;61.30;;;;;;6215031;28;20068;-73
2022/09/11 07:47:04;;;;;;;1.10;0.93;;;21.80;61.20;;;;;;6215080;28;20109;-72
2022/09/11 07:50:05;;;;;;;1.00;0.90;;;21.80;61.20;;;;;;6220101;28;20384;-72
2022/09/11 07:53:06;;;;;;;1.20;0.98;;;21.80;61.20;;;;;;6214390;28;20637;-72
2022/09/11 07:56:24;;;;;;;1.20;0.80;;;21.80;61.20;;;;;;6216157;28;20026;-72
2022/09/11 07:59:24;;;;;;;0.98;0.88;;;21.80;61.20;;;;;;6218766;28;20041;-72
2022/09/11 08:02:25;;;;;;;0.80;0.80;;;21.80;61.20;;;;;;6218676;28;20473;-72
2022/09/11 08:05:25;;;;;;;1.05;0.95;;;21.80;61.20;;;;;;6218859;28;20038;-72
2022/09/11 08:08:28;;;;;;;1.20;0.80;;;21.80;61.20;;;;;;6219874;28;20072;-71
2022/09/11 08:11:30;;;;;;;1.27;1.00;;;21.80;61.20;;;;;;6218018;28;20113;-72
2022/09/11 08:14:31;;;;;;;1.70;1.27;;;21.80;61.20;;;;;;6217841;28;20083;-72
2022/09/11 08:17:33;;;;;;;0.80;0.80;;;21.80;61.20;;;;;;6218091;28;20494;-72
2022/09/11 08:20:34;;;;;;;1.10;1.00;;;21.80;61.20;;;;;;6218197;28;20032;-72
2022/09/11 08:23:40;;;;;;;0.80;0.80;;;21.80;61.20;;;;;;6223568;28;20034;-72
2022/09/11 08:26:40;;;;;;;0.95;0.80;;;21.80;61.20;;;;;;6218362;28;20025;-72
2022/09/11 08:29:41;;;;;;;0.80;0.80;;;21.80;61.20;;;;;;6219535;28;20732;-72
2022/09/11 08:32:41;;;;;;;1.33;1.10;;;21.80;61.20;;;;;;6220168;28;20073;-71
2022/09/11 08:35:42;;;;;;;1.08;0.85;;;21.80;61.20;;;;;;6219501;28;20029;-72
2022/09/11 08:38:44;;;;;;;1.30;1.00;;;21.80;61.30;;;;;;6219623;28;20026;-71
2022/09/11 08:41:47;;;;;;;1.00;0.90;;;21.80;61.20;;;;;;6217390;28;20021;-72
2022/09/11 08:44:52;;;;;;;1.10;0.98;;;21.80;61.20;;;;;;6216538;28;20034;-72
2022/09/11 08:47:56;;;;;;;1.40;1.10;;;21.80;61.20;;;;;;6217735;28;20049;-72
2022/09/11 08:50:57;;;;;;;1.33;1.05;;;21.80;61.20;;;;;;6223593;28;20030;-72
2022/09/11 08:54:00;;;;;;;0.95;0.90;;;21.80;61.20;;;;;;6218999;28;20059;-72
2022/09/11 08:57:04;;;;;;;1.10;0.90;;;21.80;61.20;;;;;;6195419;28;20484;-72
2022/09/11 09:00:18;;;;;;;1.10;1.00;;;21.80;61.20;;;;;;6201050;28;20448;-72
2022/09/11 09:03:52;;;;;;;1.20;1.02;;;21.80;61.20;;;;;;6217543;28;20022;-72
2022/09/11 09:07:05;;;;;;;1.25;0.85;;;21.80;61.20;;;;;;6216444;28;20022;-71
2022/09/11 09:10:28;;;;;;;1.20;1.00;;;21.80;61.20;;;;;;6218792;28;20105;-72
2022/09/11 09:13:41;;;;;;;1.00;0.90;;;21.80;61.20;;;;;;6218779;28;20026;-72
2022/09/11 09:16:56;;;;;;;0.82;0.82;;;21.80;61.20;;;;;;6218037;28;20038;-73
2022/09/11 09:20:04;;;;;;;1.40;0.98;;;21.80;61.20;;;;;;6218405;28;20097;-73
2022/09/11 09:23:17;;;;;;;1.10;1.00;;;21.80;61.20;;;;;;6217913;28;20022;-72
2022/09/11 09:26:18;;;;;;;1.38;1.23;;;21.80;61.20;;;;;;6216910;28;20026;-72
2022/09/11 09:29:29;;;;;;;1.10;1.00;;;21.80;61.20;;;;;;6217397;28;20090;-72
2022/09/11 09:32:37;;;;;;;0.85;0.85;;;21.80;61.20;;;;;;6216891;28;20030;-73
2022/09/11 09:35:41;;;;;;;1.30;1.05;;;21.80;61.20;;;;;;6220492;28;20022;-72
2022/09/11 09:38:43;;;;;;;1.10;1.00;;;21.80;61.20;;;;;;6218718;28;20029;-72
2022/09/11 09:42:02;;;;;;;1.40;1.20;;;21.80;61.10;;;;;;6217817;28;20025;-71
2022/09/11 09:45:31;;;;;;;1.27;1.10;;;21.80;60.90;;;;;;6217791;28;20608;-72
2022/09/11 09:48:37;;;;;;;1.30;1.10;;;21.80;61.00;;;;;;6215527;28;20049;-72
2022/09/11 09:51:40;;;;;;;1.15;1.05;;;21.80;61.00;;;;;;6221944;28;20040;-72
2022/09/11 09:54:41;;;;;;;1.00;0.90;;;21.80;61.00;;;;;;6215738;28;20500;-71
2022/09/11 09:57:42;;;;;;;1.08;0.98;;;21.80;61.20;;;;;;6216475;28;20048;-71
2022/09/11 10:00:44;;;;;;;1.08;0.98;;;21.80;61.10;;;;;;6216365;28;20022;-72
2022/09/11 10:04:12;;;;;;;1.50;1.10;;;21.80;61.10;;;;;;6216222;28;20028;-72
2022/09/11 10:07:21;;;;;;;1.60;1.33;;;21.80;61.20;;;;;;6216156;28;20125;-72
2022/09/11 10:10:31;;;;;;;1.45;1.00;;;21.80;61.00;;;;;;6223758;28;20065;-72
2022/09/11 10:13:37;;;;;;;1.52;1.10;;;21.80;61.00;;;;;;6215490;28;20025;-72
2022/09/11 10:16:39;;;;;;;1.20;1.10;;;21.80;61.20;;;;;;6215974;28;20067;-72
2022/09/11 10:19:41;;;;;;;1.15;0.95;;;21.80;61.20;;;;;;6215233;28;20026;-72
2022/09/11 10:22:42;;;;;;;1.70;1.25;;;21.70;61.00;;;;;;6223370;28;20033;-72
2022/09/11 10:25:48;;;;;;;1.52;1.13;;;21.80;61.10;;;;;;6217316;28;20029;-73
2022/09/11 10:28:50;;;;;;;1.70;0.95;;;21.70;61.00;;;;;;6223738;28;20492;-72
2022/09/11 10:32:04;;;;;;;1.00;0.90;;;21.70;61.00;;;;;;6215767;28;20061;-72
2022/09/11 10:35:08;;;;;;;13.98;1.20;;;21.70;61.00;;;;;;6215746;28;20022;-72
2022/09/11 10:38:17;;;;;;;1.33;1.10;;;21.80;61.20;;;;;;6215692;28;20032;-71
2022/09/11 10:41:31;;;;;;;1.65;1.00;;;21.80;61.20;;;;;;6215012;28;20789;-71
2022/09/11 10:44:32;;;;;;;1.08;0.90;;;21.80;61.20;;;;;;6215186;28;20523;-72
2022/09/11 10:47:33;;;;;;;0.93;0.88;;;21.80;61.10;;;;;;6222733;28;20105;-72
2022/09/11 10:50:33;;;;;;;1.52;1.13;;;21.80;61.10;;;;;;6217237;28;20153;-72
2022/09/11 10:53:58;;;;;;;1.67;1.17;;;21.80;61.20;;;;;;6216525;28;20030;-72
2022/09/11 10:57:20;;;;;;;1.00;0.90;;;21.80;61.20;;;;;;6215764;28;20431;-72
2022/09/11 11:00:26;;;;;;;1.98;1.30;;;21.70;61.00;;;;;;6215343;28;20078;-72
2022/09/11 11:03:28;;;;;;;1.05;0.95;;;21.80;61.00;;;;;;6215220;28;20472;-72
2022/09/11 11:06:59;;;;;;;4.00;1.10;;;21.80;61.00;;;;;;6215412;28;20022;-72
2022/09/11 11:10:26;;;;;;;1.60;1.10;;;21.70;61.00;;;;;;6215126;28;20515;-73
2022/09/11 11:13:45;;;;;;;1.17;1.08;;;21.80;61.20;;;;;;6221258;28;20053;-72
2022/09/11 11:17:04;;;;;;;1.48;1.30;;;21.80;61.20;;;;;;6214501;28;20030;-71
2022/09/11 11:20:30;;;;;;;1.20;1.05;;;21.70;61.00;;;;;;6214975;28;20026;-72
2022/09/11 11:23:50;;;;;;;1.30;1.10;;;21.70;61.00;;;;;;6214656;28;20446;-72
2022/09/11 11:27:08;;;;;;;1.20;1.10;;;21.80;61.20;;;;;;6214424;28;20431;-72
2022/09/11 11:30:13;;;;;;;1.25;1.10;;;21.70;61.00;;;;;;6213460;28;20030;-72
2022/09/11 11:33:23;;;;;;;;;;;21.70;61.00;;;;;;6215074;28;20030;-73
2022/09/11 11:36:43;;;;;;;1.10;1.00;;;21.80;61.20;;;;;;6216158;28;20539;-72
2022/09/11 11:40:01;;;;;;;1.55;1.20;;;21.70;61.10;;;;;;6197887;28;20101;-72
2022/09/11 11:43:12;;;;;;;1.13;0.90;;;21.70;61.00;;;;;;6212993;28;20046;-72
2022/09/11 11:46:38;;;;;;;1.35;1.25;;;21.70;61.00;;;;;;6214191;28;20022;-72
2022/09/11 11:49:52;;;;;;;1.42;1.27;;;21.70;61.00;;;;;;6214466;28;20112;-72
2022/09/11 11:53:17;;;;;;;1.30;1.17;;;21.80;61.20;;;;;;6214496;28;20472;-72
2022/09/11 11:56:40;;;;;;;1.35;1.10;;;21.70;61.00;;;;;;6213901;28;20336;-72
2022/09/11 11:59:56;;;;;;;1.30;1.20;;;21.70;61.00;;;;;;6214212;28;20477;-72
2022/09/11 12:03:03;;;;;;;1.40;1.13;;;21.80;61.20;;;;;;6215252;28;20033;-72
2022/09/11 12:06:06;;;;;;;1.38;1.10;;;21.70;61.00;;;;;;6215398;28;20584;-72
2022/09/11 12:09:09;;;;;;;1.55;1.00;;;21.70;61.00;;;;;;6214207;28;20113;-72
2022/09/11 12:12:12;;;;;;;1.15;1.05;;;21.70;61.00;;;;;;6213540;28;20022;-72
2022/09/11 12:15:28;;;;;;;1.10;1.00;;;21.80;61.20;;;;;;6213892;28;20396;-72
2022/09/11 12:18:28;;;;;;;1.52;1.40;;;21.70;61.00;;;;;;6213808;28;20117;-71
2022/09/11 12:21:30;;;;;;;1.30;1.17;;;21.70;60.90;;;;;;6213974;28;20495;-72
2022/09/11 12:24:57;;;;;;;1.15;1.05;;;21.80;61.10;;;;;;6214025;28;20037;-72
2022/09/11 12:28:23;;;;;;;1.17;1.05;;;21.80;61.20;;;;;;6214566;28;20380;-72
2022/09/11 12:31:24;;;;;;;1.13;1.02;;;21.70;61.00;;;;;;6213932;28;20029;-72
2022/09/11 12:34:37;;;;;;;1.20;1.10;;;21.70;61.00;;;;;;6214934;28;20032;-72
2022/09/11 12:37:38;;;;;;;1.15;0.93;;;21.70;61.00;;;;;;6215059;28;20030;-72
2022/09/11 12:40:50;;;;;;;0.93;0.93;;;21.70;61.00;;;;;;6220931;28;20069;-72
2022/09/11 12:43:53;;;;;;;1.20;1.05;;;21.80;61.10;;;;;;6216158;28;20083;-71
2022/09/11 12:46:53;;;;;;;1.15;1.00;;;21.70;61.00;;;;;;6218223;28;20033;-72
2022/09/11 12:50:17;;;;;;;1.33;1.10;;;21.70;61.00;;;;;;6217733;28;20026;-72
2022/09/11 12:53:27;;;;;;;1.52;1.08;;;21.70;61.00;;;;;;6217585;28;20033;-72
2022/09/11 12:56:33;;;;;;;1.20;1.10;;;21.70;60.90;;;;;;6218540;28;20026;-71
2022/09/11 12:59:42;;;;;;;1.00;0.93;;;21.80;61.00;;;;;;6217351;28;20030;-72
2022/09/11 13:02:45;;;;;;;1.20;0.98;;;21.70;61.00;;;;;;6223543;28;20124;-72
2022/09/11 13:05:55;;;;;;;1.10;1.00;;;21.70;60.90;;;;;;6217269;28;20390;-71
2022/09/11 13:09:00;;;;;;;1.20;1.00;;;21.70;61.00;;;;;;6223723;28;20034;-72
2022/09/11 13:12:22;;;;;;;1.05;0.95;;;21.70;61.00;;;;;;6218090;28;20026;-72
2022/09/11 13:15:36;;;;;;;1.13;1.02;;;21.70;61.00;;;;;;6217179;28;20026;-72
2022/09/11 13:18:42;;;;;;;1.10;1.00;;;21.70;61.00;;;;;;6224564;28;20041;-73
2022/09/11 13:21:48;;;;;;;1.00;0.90;;;21.70;61.00;;;;;;6218623;28;20388;-72
2022/09/11 13:24:48;;;;;;;1.20;1.00;;;21.70;61.00;;;;;;6216594;28;20098;-72
2022/09/11 13:27:55;;;;;;;1.17;1.00;;;21.70;61.10;;;;;;6217619;28;20368;-72
2022/09/11 13:31:03;;;;;;;1.40;1.20;;;21.70;61.00;;;;;;6215621;28;20026;-71
2022/09/11 13:34:14;;;;;;;1.70;1.13;;;21.70;61.00;;;;;;6216600;28;20057;-72
2022/09/11 13:37:31;;;;;;;1.08;0.98;;;21.70;61.00;;;;;;6220923;28;20046;-72
2022/09/11 13:40:53;;;;;;;1.10;1.00;;;21.70;61.00;;;;;;6216783;28;20562;-72
2022/09/11 13:43:59;;;;;;;1.10;1.00;;;21.70;61.00;;;;;;6215467;28;20056;-72
2022/09/11 13:47:00;;;;;;;1.73;1.30;;;21.70;61.00;;;;;;6217182;28;20022;-71
2022/09/11 13:50:05;;;;;;;1.17;1.08;;;21.70;61.00;;;;;;6217999;28;20025;-72
2022/09/11 13:53:05;;;;;;;;;;;21.80;61.00;;;;;;6218635;28;20422;-72
2022/09/11 13:56:19;;;;;;;1.30;1.10;;;21.70;60.90;;;;;;6217883;28;19987;-72
2022/09/11 13:59:37;;;;;;;1.48;1.08;;;21.70;61.00;;;;;;6218049;28;20060;-72
2022/09/11 14:02:48;;;;;;;1.00;0.90;;;21.70;61.00;;;;;;6217532;28;20070;-72
2022/09/11 14:05:54;;;;;;;1.00;0.90;;;21.70;61.10;;;;;;6215926;28;20117;-71
2022/09/11 14:08:56;;;;;;;1.50;1.02;;;21.70;61.00;;;;;;6216259;28;20385;-72
2022/09/11 14:12:01;;;;;;;1.27;1.00;;;21.70;61.00;;;;;;6216639;28;20109;-71
2022/09/11 14:15:15;;;;;;;1.20;1.00;;;21.70;61.00;;;;;;6217349;28;20061;-71
2022/09/11 14:18:47;;;;;;;1.10;1.00;;;21.70;61.00;;;;;;6216830;28;20026;-72
2022/09/11 14:21:49;;;;;;;1.33;1.23;;;21.70;61.00;;;;;;6242221;28;20437;-72
2022/09/11 14:25:03;;;;;;;1.23;1.10;;;21.70;61.00;;;;;;6216761;28;20022;-71
2022/09/11 14:28:03;;;;;;;1.00;0.90;;;21.70;61.00;;;;;;6217552;28;20045;-71
2022/09/11 14:31:08;;;;;;;0.95;0.85;;;21.70;61.00;;;;;;6217615;28;20034;-72
2022/09/11 14:34:15;;;;;;;1.33;1.23;;;21.70;61.00;;;;;;6223468;28;20022;-72
2022/09/11 14:37:16;;;;;;;1.20;1.00;;;21.70;60.90;;;;;;6223359;28;20082;-71
2022/09/11 14:40:18;;;;;;;0.98;0.90;;;21.70;61.00;;;;;;6223131;28;20018;-71
2022/09/11 14:43:33;;;;;;;1.70;1.30;;;21.70;60.90;;;;;;6217177;28;20095;-72
2022/09/11 14:46:34;;;;;;;;;;;21.70;61.00;;;;;;6217047;28;20022;-72
2022/09/11 14:49:34;;;;;;;0.93;0.88;;;21.80;61.20;;;;;;6215934;28;19917;-73
2022/09/11 14:52:35;;;;;;;1.15;0.93;;;21.70;61.00;;;;;;6215753;28;20030;-72
2022/09/11 14:55:36;;;;;;;1.10;1.00;;;21.70;61.00;;;;;;6214879;28;20030;-72
2022/09/11 14:58:37;;;;;;;1.00;0.90;;;21.70;61.00;;;;;;6216640;28;20044;-72
2022/09/11 15:01:38;;;;;;;0.90;0.70;;;21.70;61.00;;;;;;6222610;28;20041;-72
2022/09/11 15:04:39;;;;;;;1.10;0.90;;;21.70;61.00;;;;;;6214985;28;20487;-71
2022/09/11 15:07:39;;;;;;;1.10;1.00;;;21.70;61.00;;;;;;6215287;28;20556;-72
2022/09/11 15:10:41;;;;;;;1.00;0.90;;;21.70;61.00;;;;;;6215376;28;20074;-71
2022/09/11 15:13:43;;;;;;;1.23;1.00;;;21.70;61.10;;;;;;6214941;28;20025;-72
2022/09/11 15:16:45;;;;;;;1.20;1.10;;;21.70;61.00;;;;;;6214780;28;20559;-72
2022/09/11 15:19:48;;;;;;;1.27;1.08;;;21.70;61.10;;;;;;6214845;28;20026;-72
2022/09/11 15:22:50;;;;;;;1.25;0.90;;;21.70;61.10;;;;;;6214889;28;20025;-72
2022/09/11 15:26:00;;;;;;;1.13;1.02;;;21.70;61.00;;;;;;6215373;28;20124;-71
2022/09/11 15:29:00;;;;;;;0.90;0.90;;;21.70;61.10;;;;;;6213745;28;20030;-72
2022/09/11 15:32:02;;;;;;;0.77;0.73;;;21.70;61.00;;;;;;6219542;28;20466;-72
2022/09/11 15:35:04;;;;;;;1.10;1.00;;;21.70;61.10;;;;;;6214356;28;20029;-72
2022/09/11 15:38:05;;;;;;;1.10;0.85;;;21.70;61.10;;;;;;6214638;28;20041;-72
2022/09/11 15:41:07;;;;;;;1.00;0.90;;;21.70;61.00;;;;;;6215039;28;20199;-72
2022/09/11 15:44:10;;;;;;;1.33;1.05;;;21.70;61.10;;;;;;6215392;28;20042;-72
2022/09/11 15:47:12;;;;;;;1.55;0.95;;;21.70;61.00;;;;;;6214600;28;20025;-72
2022/09/11 15:50:17;;;;;;;1.33;1.15;;;21.70;61.00;;;;;;6214772;28;20040;-72
2022/09/11 15:53:17;;;;;;;1.85;0.98;;;21.70;61.00;;;;;;6214512;28;20026;-72
2022/09/11 15:56:21;;;;;;;0.80;0.80;;;21.70;61.00;;;;;;6214190;28;20045;-71
2022/09/11 15:59:21;;;;;;;0.70;0.70;;;21.70;61.00;;;;;;6214286;28;20034;-71
2022/09/11 16:02:22;;;;;;;0.85;0.82;;;21.70;61.00;;;;;;6214088;28;20111;-72
2022/09/11 16:05:23;;;;;;;1.08;0.98;;;21.70;61.00;;;;;;6214214;28;20058;-72
2022/09/11 16:08:24;;;;;;;1.10;1.00;;;21.70;61.10;;;;;;6214259;28;20495;-72
2022/09/11 16:11:25;;;;;;;1.52;0.90;;;21.70;61.10;;;;;;6214361;28;20022;-72